Dexterville, Wisconsin
Current Conditions -  °F | °C
As of 10:54 AM on Friday 24 Oct 2014 (Local Time) from KMFI Reporting Station
Haze Haze  
Wind Chill: 45°   Ceiling: 200
Heat Index: 47°   Visibility: 0.75mi
Dew Point: 46°   Wind: 5mph
Humidity: 97%   Direction: 190°S
Pressure: 29.99"   Gusts: NA
Location:  44.4101°N, 90.2968°W
Report Text: KMFI 241554Z AUTO 19004KT 3/4SM BR OVC002 08/08 A2999 RMK AO2 SLP161 T00830078
Loading
Personal Weather Stations






























Interactive Weather Map
Tropical Storm Tracking
New forecast layout! Learn more

10-Day Weather Forecast

Advertisements
Track Severe Weather on mobile